createdAt,value
2022-08-07T00:02:35.622Z,80.59
2022-08-07T00:04:05.942Z,81.46
2022-08-07T00:06:33.451Z,81.18
2022-08-07T00:09:16.195Z,81.39
2022-08-07T00:11:54.231Z,81.76
2022-08-07T00:14:25.411Z,81.33
2022-08-07T00:16:57.360Z,82.22
2022-08-07T00:19:26.126Z,81.50
2022-08-07T00:22:10.145Z,81.78
2022-08-07T00:24:38.549Z,82.73
2022-08-07T00:27:07.737Z,82.40
2022-08-07T00:29:37.043Z,82.13
2022-08-07T00:32:05.918Z,83.01
2022-08-07T00:34:33.666Z,83.06
2022-08-07T00:37:02.300Z,82.72
2022-08-07T00:39:31.861Z,82.90
2022-08-07T00:42:01.782Z,83.10
2022-08-07T00:44:31.171Z,83.21
2022-08-07T00:46:59.732Z,84.32
2022-08-07T00:50:20.419Z,84.30
2022-08-07T00:52:12.643Z,84.08
2022-08-07T00:54:40.816Z,84.02
2022-08-07T00:57:10.290Z,83.67
2022-08-07T00:59:38.872Z,84.12
2022-08-07T01:02:08.904Z,84.19
2022-08-07T01:04:43.230Z,84.03
2022-08-07T01:07:11.826Z,83.61
2022-08-07T01:10:07.153Z,84.00
2022-08-07T01:12:29.862Z,83.70
2022-08-07T01:15:01.244Z,83.67
2022-08-07T01:17:30.487Z,83.88
2022-08-07T01:20:03.740Z,83.67
2022-08-07T01:22:30.972Z,83.76
2022-08-07T01:24:59.244Z,83.93
2022-08-07T01:27:32.108Z,83.90
2022-08-07T01:29:59.687Z,85.40
2022-08-07T01:32:27.699Z,85.74
2022-08-07T01:34:55.956Z,85.28
2022-08-07T01:37:24.068Z,85.66
2022-08-07T01:39:51.055Z,84.91
2022-08-07T01:42:38.538Z,84.73
2022-08-07T01:45:09.631Z,84.71
2022-08-07T01:48:19.182Z,84.63
2022-08-07T01:50:30.577Z,85.24
2022-08-07T01:52:58.795Z,84.79
2022-08-07T01:55:34.189Z,84.85
2022-08-07T01:58:06.304Z,84.81
2022-08-07T02:00:57.961Z,84.90
2022-08-07T02:03:51.010Z,85.87
2022-08-07T02:06:31.795Z,85.29
2022-08-07T02:09:01.606Z,85.37
2022-08-07T02:12:03.236Z,85.15
2022-08-07T02:14:40.387Z,85.06
2022-08-07T02:17:10.054Z,85.64
2022-08-07T02:20:04.874Z,85.65
2022-08-07T02:22:27.110Z,85.98
2022-08-07T02:24:57.345Z,86.27
2022-08-07T02:27:26.235Z,86.28
2022-08-07T02:30:03.636Z,86.33
2022-08-07T02:32:36.109Z,85.84
2022-08-07T02:35:09.194Z,85.94
2022-08-07T02:37:44.213Z,85.80
2022-08-07T02:40:31.077Z,85.85
2022-08-07T02:42:59.067Z,86.40
2022-08-07T02:46:00.693Z,86.27
2022-08-07T02:48:17.181Z,86.63
2022-08-07T02:50:48.354Z,86.34
2022-08-07T02:53:27.584Z,86.36
2022-08-07T02:56:04.340Z,86.61
2022-08-07T02:58:33.955Z,86.99
2022-08-07T03:01:03.117Z,87.00
2022-08-07T03:03:49.059Z,86.93
2022-08-07T03:06:26.024Z,87.07
2022-08-07T03:09:00.109Z,86.70
2022-08-07T03:11:28.241Z,87.00
2022-08-07T03:13:57.648Z,87.58
2022-08-07T03:16:28.524Z,87.30
2022-08-07T03:18:58.003Z,87.45
2022-08-07T03:21:25.226Z,87.34
2022-08-07T03:24:19.443Z,87.36
2022-08-07T03:26:51.199Z,87.68
2022-08-07T03:29:27.543Z,87.94
2022-08-07T03:31:55.811Z,87.72
2022-08-07T03:34:27.159Z,87.74
2022-08-07T03:36:55.036Z,87.53
2022-08-07T03:39:46.561Z,87.94
2022-08-07T03:42:13.141Z,87.81
2022-08-07T03:44:40.398Z,87.76
2022-08-07T03:47:10.863Z,87.92
2022-08-07T03:49:40.380Z,88.17
2022-08-07T03:52:26.228Z,88.17
2022-08-07T03:54:57.338Z,87.67
2022-08-07T03:58:34.612Z,87.48
2022-08-07T04:00:14.855Z,87.40
2022-08-07T04:02:47.205Z,87.83
2022-08-07T04:05:15.845Z,88.09
2022-08-07T04:07:49.013Z,88.17
2022-08-07T04:10:19.545Z,88.05
2022-08-07T04:12:48.671Z,88.39
2022-08-07T04:15:18.160Z,87.91
2022-08-07T04:18:31.167Z,87.88
2022-08-07T04:20:31.811Z,87.93
2022-08-07T04:23:06.261Z,88.18
2022-08-07T04:25:39.067Z,88.60
2022-08-07T04:28:08.081Z,88.62
2022-08-07T04:30:43.565Z,88.88
2022-08-07T04:33:24.222Z,88.78
2022-08-07T04:35:53.905Z,88.58
2022-08-07T04:38:21.660Z,88.48
2022-08-07T04:40:52.244Z,88.40
2022-08-07T04:44:09.644Z,88.25
2022-08-07T04:46:25.864Z,88.70
2022-08-07T04:48:56.000Z,88.47
2022-08-07T04:51:43.642Z,88.87
2022-08-07T04:54:30.521Z,88.61
2022-08-07T04:58:29.365Z,88.42
2022-08-07T05:00:30.805Z,87.97
2022-08-07T05:03:17.357Z,87.81
2022-08-07T05:06:28.178Z,87.59
2022-08-07T05:09:10.436Z,87.68
2022-08-07T05:11:56.881Z,87.61
2022-08-07T05:14:55.624Z,87.57
2022-08-07T05:17:51.929Z,87.30
2022-08-07T05:20:09.970Z,87.11
2022-08-07T05:22:38.695Z,87.11
2022-08-07T05:25:08.472Z,86.90
2022-08-07T05:28:03.483Z,86.66
2022-08-07T05:30:32.858Z,86.18
2022-08-07T05:33:02.624Z,85.14
2022-08-07T05:35:33.472Z,84.75
2022-08-07T05:38:10.037Z,84.03
2022-08-07T05:40:50.421Z,82.00
2022-08-07T05:43:19.081Z,81.56
2022-08-07T05:45:48.348Z,81.27
2022-08-07T05:48:15.548Z,80.66
2022-08-07T05:50:43.552Z,80.06
2022-08-07T05:54:14.106Z,77.94
2022-08-07T05:56:03.735Z,77.40
2022-08-07T05:58:36.819Z,69.69
2022-08-07T06:01:05.979Z,58.89
2022-08-07T06:03:56.391Z,52.82
2022-08-07T06:06:29.594Z,48.18
2022-08-07T06:08:59.015Z,46.25
2022-08-07T06:11:25.739Z,44.96
2022-08-07T06:14:13.139Z,44.15
2022-08-07T06:16:39.013Z,42.01
2022-08-07T06:19:06.490Z,40.11
2022-08-07T06:22:15.282Z,38.78
2022-08-07T06:24:48.190Z,37.46
2022-08-07T06:27:06.729Z,37.86
2022-08-07T06:29:34.835Z,39.51
2022-08-07T06:32:05.510Z,38.03
2022-08-07T06:34:31.992Z,36.23
2022-08-07T06:36:58.343Z,35.54
2022-08-07T06:40:15.756Z,36.77
2022-08-07T06:42:34.816Z,36.93
2022-08-07T06:45:02.960Z,37.07
2022-08-07T06:47:38.891Z,36.21
2022-08-07T06:50:19.058Z,36.68
2022-08-07T06:52:48.763Z,34.87
2022-08-07T06:55:53.424Z,34.09
2022-08-07T06:58:21.347Z,34.27
2022-08-07T07:00:52.982Z,33.24
2022-08-07T07:03:39.760Z,31.98
2022-08-07T07:06:10.958Z,31.68
2022-08-07T07:08:39.816Z,31.69
2022-08-07T07:12:07.846Z,31.52
2022-08-07T07:14:02.761Z,30.80
2022-08-07T07:16:45.434Z,31.66
2022-08-07T07:19:56.049Z,29.85
2022-08-07T07:22:11.883Z,31.20
2022-08-07T07:25:13.912Z,29.49
2022-08-07T07:28:07.741Z,29.85
2022-08-07T07:30:59.823Z,29.44
2022-08-07T07:33:28.515Z,29.37
2022-08-07T07:36:05.548Z,32.31
2022-08-07T07:38:41.984Z,31.84
2022-08-07T07:41:15.650Z,28.44
2022-08-07T07:44:13.886Z,31.36
2022-08-07T07:46:39.726Z,30.60
2022-08-07T07:50:33.337Z,29.09
2022-08-07T07:52:10.459Z,27.87
2022-08-07T07:54:37.831Z,27.13
2022-08-07T07:57:08.952Z,27.33
2022-08-07T07:59:51.529Z,28.92
2022-08-07T08:02:33.835Z,27.80
2022-08-07T08:05:05.157Z,27.93
2022-08-07T08:07:35.830Z,26.64
2022-08-07T08:10:10.832Z,26.84
2022-08-07T08:12:59.288Z,26.52
2022-08-07T08:15:29.478Z,29.95
2022-08-07T08:18:17.321Z,26.64
2022-08-07T08:20:45.439Z,25.66
2022-08-07T08:23:34.773Z,26.36
2022-08-07T08:26:23.347Z,25.32
2022-08-07T08:28:54.288Z,25.04
2022-08-07T08:31:30.025Z,22.95
2022-08-07T08:34:27.287Z,23.12
2022-08-07T08:36:57.995Z,24.64
2022-08-07T08:39:39.328Z,24.41
2022-08-07T08:42:26.278Z,23.23
2022-08-07T08:45:04.327Z,22.10
2022-08-07T08:47:52.590Z,23.60
2022-08-07T08:50:28.355Z,23.59
2022-08-07T08:53:33.892Z,22.87
2022-08-07T08:56:10.008Z,22.25
2022-08-07T08:59:06.622Z,20.55
2022-08-07T09:01:59.760Z,21.21
2022-08-07T09:04:37.266Z,21.19
2022-08-07T09:07:11.606Z,21.16
2022-08-07T09:10:07.798Z,21.58
2022-08-07T09:12:53.618Z,23.78
2022-08-07T09:16:20.586Z,22.31
2022-08-07T09:18:37.441Z,21.97
2022-08-07T09:22:09.965Z,22.77
2022-08-07T09:25:07.015Z,22.76
2022-08-07T09:27:59.796Z,22.22
2022-08-07T09:30:34.367Z,23.31
2022-08-07T09:33:40.677Z,23.38
2022-08-07T09:36:18.533Z,21.66
2022-08-07T09:38:54.133Z,23.03
2022-08-07T09:41:28.087Z,22.13
2022-08-07T09:44:52.206Z,21.83
2022-08-07T09:47:56.163Z,24.46
2022-08-07T09:51:14.537Z,24.76
2022-08-07T09:54:02.608Z,24.10
2022-08-07T09:57:00.599Z,26.09
2022-08-07T09:59:46.206Z,27.13
2022-08-07T10:02:54.958Z,23.92
2022-08-07T10:05:59.842Z,24.11
2022-08-07T10:08:49.546Z,23.13
2022-08-07T10:12:03.308Z,21.74
2022-08-07T10:14:55.181Z,23.73
2022-08-07T10:18:00.803Z,21.32
2022-08-07T10:20:44.288Z,22.83
2022-08-07T10:24:04.747Z,20.09
2022-08-07T10:26:39.738Z,19.91
2022-08-07T10:29:25.463Z,19.89
2022-08-07T10:32:36.478Z,19.93
2022-08-07T10:35:25.443Z,19.74
2022-08-07T10:38:21.364Z,20.08
2022-08-07T10:41:08.909Z,20.44
2022-08-07T10:44:07.372Z,21.29
2022-08-07T10:46:57.552Z,23.56
2022-08-07T10:49:49.164Z,25.40
2022-08-07T10:52:51.880Z,26.23
2022-08-07T10:55:41.958Z,25.38
2022-08-07T10:58:33.343Z,25.35
2022-08-07T11:02:02.589Z,25.40
2022-08-07T11:04:42.904Z,26.46
2022-08-07T11:07:58.800Z,25.24
2022-08-07T11:10:45.332Z,23.34
2022-08-07T11:14:43.608Z,22.34
2022-08-07T11:17:01.766Z,21.93
2022-08-07T11:19:53.029Z,23.96
2022-08-07T11:22:36.010Z,25.04
2022-08-07T11:25:24.208Z,25.76
2022-08-07T11:28:15.513Z,23.99
2022-08-07T11:30:52.386Z,23.50
2022-08-07T11:33:54.218Z,21.00
2022-08-07T11:36:36.635Z,21.00
2022-08-07T11:39:20.040Z,21.69
2022-08-07T11:42:03.303Z,22.16
2022-08-07T11:44:59.931Z,21.36
2022-08-07T11:47:56.312Z,20.86
2022-08-07T11:50:59.762Z,22.14
2022-08-07T11:54:00.594Z,23.28
2022-08-07T11:56:41.017Z,21.51
2022-08-07T12:00:10.534Z,21.98
2022-08-07T12:02:36.768Z,20.15
2022-08-07T12:05:49.043Z,20.06
2022-08-07T12:08:25.667Z,23.11
2022-08-07T12:11:21.386Z,22.64
2022-08-07T12:13:54.554Z,22.87
2022-08-07T12:16:30.087Z,20.78
2022-08-07T12:19:22.027Z,20.77
2022-08-07T12:22:39.124Z,22.61
2022-08-07T12:26:05.630Z,22.34
2022-08-07T12:28:17.737Z,21.71
2022-08-07T12:31:09.307Z,22.39
2022-08-07T12:34:01.317Z,21.18
2022-08-07T12:36:33.035Z,20.90
2022-08-07T12:39:09.429Z,23.50
2022-08-07T12:41:53.500Z,23.89
2022-08-07T12:44:21.586Z,21.97
2022-08-07T12:47:21.770Z,23.15
2022-08-07T12:50:39.104Z,23.85
2022-08-07T12:53:05.219Z,22.20
2022-08-07T12:56:02.926Z,21.11
2022-08-07T12:58:37.479Z,22.10
2022-08-07T13:01:06.364Z,23.26
2022-08-07T13:04:02.756Z,22.97
2022-08-07T13:07:00.451Z,23.08
2022-08-07T13:10:19.633Z,21.10
2022-08-07T13:12:54.237Z,21.20
2022-08-07T13:15:33.799Z,22.26
2022-08-07T13:18:26.152Z,23.84
2022-08-07T13:21:02.727Z,22.03
2022-08-07T13:24:02.011Z,22.51
2022-08-07T13:26:39.664Z,22.56
2022-08-07T13:29:34.705Z,23.37
2022-08-07T13:32:32.038Z,21.42
2022-08-07T13:35:08.963Z,22.89
2022-08-07T13:37:59.180Z,23.04
2022-08-07T13:40:36.430Z,22.57
2022-08-07T13:43:12.732Z,22.39
2022-08-07T13:46:11.977Z,24.71
2022-08-07T13:48:35.098Z,24.72
2022-08-07T13:51:27.352Z,24.36
2022-08-07T13:54:02.139Z,23.50
2022-08-07T13:56:40.767Z,24.71
2022-08-07T13:59:19.789Z,24.99
2022-08-07T14:02:08.414Z,25.00
2022-08-07T14:04:50.080Z,24.39
2022-08-07T14:07:22.845Z,26.25
2022-08-07T14:10:24.380Z,24.69
2022-08-07T14:12:55.590Z,25.26
2022-08-07T14:15:37.002Z,27.54
2022-08-07T14:18:28.058Z,28.64
2022-08-07T14:22:00.731Z,27.85
2022-08-07T14:24:12.888Z,29.86
2022-08-07T14:26:50.201Z,28.95
2022-08-07T14:32:12.331Z,31.40
2022-08-07T14:34:45.654Z,29.64
2022-08-07T14:37:16.362Z,32.13
2022-08-07T14:40:17.707Z,31.59
2022-08-07T14:42:33.873Z,30.66
2022-08-07T14:45:21.341Z,30.47
2022-08-07T14:47:50.432Z,31.06
2022-08-07T14:50:20.322Z,32.62
2022-08-07T14:52:47.826Z,30.58
2022-08-07T14:55:18.005Z,31.89
2022-08-07T14:57:58.542Z,31.85
2022-08-07T15:00:31.590Z,31.87
2022-08-07T15:03:00.168Z,34.64
2022-08-07T15:05:55.122Z,31.28
2022-08-07T15:08:34.831Z,30.13
2022-08-07T15:11:15.571Z,31.96
2022-08-07T15:14:09.961Z,32.30
2022-08-07T15:16:54.832Z,32.53
2022-08-07T15:20:31.303Z,34.60
2022-08-07T15:22:23.125Z,35.16
2022-08-07T15:25:16.103Z,33.99
2022-08-07T15:28:32.146Z,33.33
2022-08-07T15:30:35.034Z,34.91
2022-08-07T15:33:05.659Z,36.09
2022-08-07T15:36:01.407Z,35.11
2022-08-07T15:38:50.925Z,33.80
2022-08-07T15:42:43.525Z,34.70
2022-08-07T15:44:12.356Z,35.40
2022-08-07T15:46:51.867Z,34.75
2022-08-07T15:49:25.356Z,34.79
2022-08-07T15:52:15.439Z,33.36
2022-08-07T15:54:45.433Z,36.10
2022-08-07T15:57:28.050Z,38.45
2022-08-07T16:00:08.158Z,39.46
2022-08-07T16:02:40.236Z,39.05
2022-08-07T16:05:15.123Z,40.06
2022-08-07T16:08:30.285Z,38.93
2022-08-07T16:10:59.842Z,39.96
2022-08-07T16:13:57.470Z,39.39
2022-08-07T16:16:48.006Z,37.84
2022-08-07T16:19:41.892Z,35.87
2022-08-07T16:22:38.618Z,35.38
2022-08-07T16:25:54.324Z,35.46
2022-08-07T16:30:06.516Z,38.81
2022-08-07T16:31:58.131Z,33.20
2022-08-07T16:34:48.861Z,36.12
2022-08-07T16:38:04.730Z,36.63
2022-08-07T16:40:30.624Z,35.41
2022-08-07T16:43:23.684Z,37.18
2022-08-07T16:50:27.885Z,36.11
2022-08-07T16:52:49.123Z,37.28
2022-08-07T16:55:24.224Z,40.88
2022-08-07T16:58:04.124Z,37.87
2022-08-07T17:00:40.916Z,37.36
2022-08-07T17:03:58.566Z,37.46
2022-08-07T17:06:58.049Z,38.96
2022-08-07T17:10:06.725Z,40.17
2022-08-07T17:12:45.476Z,40.95
2022-08-07T17:15:16.037Z,41.20
2022-08-07T17:17:56.248Z,41.02
2022-08-07T17:20:54.761Z,40.89
2022-08-07T17:23:39.665Z,40.58
2022-08-07T17:26:34.902Z,42.42
2022-08-07T17:29:09.484Z,44.08
2022-08-07T17:32:28.323Z,41.92
2022-08-07T17:35:51.267Z,41.12
2022-08-07T17:38:33.607Z,43.24
2022-08-07T17:42:02.615Z,44.33
2022-08-07T17:44:01.924Z,44.64
2022-08-07T17:46:47.161Z,44.99
2022-08-07T17:49:30.113Z,44.54
2022-08-07T17:52:10.453Z,44.56
2022-08-07T17:54:54.377Z,44.77
2022-08-07T17:57:58.533Z,43.88
2022-08-07T18:00:32.975Z,44.63
2022-08-07T18:03:18.082Z,45.11
2022-08-07T18:06:01.500Z,45.31
2022-08-07T18:09:01.379Z,45.52
2022-08-07T18:12:06.718Z,46.09
2022-08-07T18:14:46.297Z,46.39
2022-08-07T18:19:02.683Z,46.87
2022-08-07T18:21:07.459Z,47.43
2022-08-07T18:23:58.430Z,47.81
2022-08-07T18:26:50.251Z,49.73
2022-08-07T18:30:05.423Z,50.90
2022-08-07T18:32:22.174Z,51.36
2022-08-07T18:35:00.877Z,50.78
2022-08-07T18:38:58.182Z,51.44
2022-08-07T18:40:53.866Z,52.52
2022-08-07T18:43:49.530Z,53.08
2022-08-07T18:46:28.182Z,53.13
2022-08-07T18:50:32.680Z,52.91
2022-08-07T18:52:33.776Z,54.26
2022-08-07T18:55:42.287Z,55.06
2022-08-07T18:58:29.843Z,55.11
2022-08-07T19:01:06.910Z,55.35
2022-08-07T19:04:09.838Z,55.87
2022-08-07T19:07:03.717Z,55.51
2022-08-07T19:09:59.226Z,55.68
2022-08-07T19:12:59.163Z,56.02
2022-08-07T19:16:04.249Z,56.41
2022-08-07T19:18:46.438Z,56.40
2022-08-07T19:21:51.109Z,56.43
2022-08-07T19:24:36.831Z,56.48
2022-08-07T19:28:30.006Z,57.23
2022-08-07T19:31:06.376Z,58.17
2022-08-07T19:32:59.174Z,58.42
2022-08-07T19:35:28.287Z,58.53
2022-08-07T19:38:02.417Z,58.57
2022-08-07T19:40:36.264Z,59.30
2022-08-07T19:43:21.721Z,58.93
2022-08-07T19:46:10.038Z,59.27
2022-08-07T19:48:42.391Z,59.27
2022-08-07T19:51:19.128Z,60.24
2022-08-07T19:54:33.901Z,60.43
2022-08-07T19:57:52.417Z,60.38
2022-08-07T19:59:40.635Z,61.13
2022-08-07T20:02:19.073Z,61.09
2022-08-07T20:04:49.119Z,61.00
2022-08-07T20:07:23.854Z,62.13
2022-08-07T20:10:35.427Z,61.75
2022-08-07T20:12:53.894Z,62.97
2022-08-07T20:15:24.660Z,63.31
2022-08-07T20:18:04.364Z,62.36
2022-08-07T20:20:32.623Z,62.05
2022-08-07T20:23:10.847Z,61.64
2022-08-07T20:25:55.555Z,61.99
2022-08-07T20:28:29.430Z,62.60
2022-08-07T20:30:57.124Z,62.53
2022-08-07T20:33:37.488Z,63.45
2022-08-07T20:36:07.237Z,63.40
2022-08-07T20:38:35.002Z,64.10
2022-08-07T20:41:05.459Z,63.69
2022-08-07T20:43:33.926Z,63.58
2022-08-07T20:46:26.188Z,62.73
2022-08-07T20:49:54.678Z,62.87
2022-08-07T20:51:46.884Z,63.23
2022-08-07T20:54:29.571Z,64.01
2022-08-07T20:57:02.585Z,64.00
2022-08-07T21:00:08.449Z,63.95
2022-08-07T21:02:41.308Z,64.76
2022-08-07T21:05:42.791Z,64.54
2022-08-07T21:08:15.853Z,64.87
2022-08-07T21:10:44.414Z,64.95
2022-08-07T21:13:17.697Z,65.83
2022-08-07T21:16:00.415Z,65.94
2022-08-07T21:18:33.460Z,66.30
2022-08-07T21:21:02.194Z,66.40
2022-08-07T21:24:00.620Z,67.37
2022-08-07T21:27:00.371Z,67.83
2022-08-07T21:29:53.144Z,66.94
2022-08-07T21:32:54.637Z,66.91
2022-08-07T21:36:05.792Z,67.57
2022-08-07T21:38:28.205Z,67.73
2022-08-07T21:41:10.174Z,68.74
2022-08-07T21:43:55.538Z,68.23
2022-08-07T21:46:32.259Z,68.28
2022-08-07T21:49:14.410Z,68.46
2022-08-07T21:52:11.488Z,69.29
2022-08-07T21:54:46.030Z,69.13
2022-08-07T21:57:44.907Z,69.27
2022-08-07T22:00:25.308Z,69.23
2022-08-07T22:03:06.177Z,69.10
2022-08-07T22:05:46.017Z,69.24
2022-08-07T22:08:18.779Z,68.65
2022-08-07T22:10:50.114Z,69.55
2022-08-07T22:13:17.079Z,68.84
2022-08-07T22:16:43.852Z,68.87
2022-08-07T22:19:18.006Z,69.37
2022-08-07T22:22:05.306Z,69.54
2022-08-07T22:24:55.243Z,70.14
2022-08-07T22:28:20.079Z,70.31
2022-08-07T22:31:05.320Z,70.21
2022-08-07T22:33:56.408Z,70.39
2022-08-07T22:37:09.375Z,70.72
2022-08-07T22:40:17.006Z,70.82
2022-08-07T22:42:45.808Z,70.92
2022-08-07T22:46:04.472Z,71.89
2022-08-07T22:48:31.810Z,71.73
2022-08-07T22:51:14.648Z,71.40
2022-08-07T22:54:16.135Z,71.96
2022-08-07T22:57:01.129Z,71.50
2022-08-07T22:59:59.317Z,72.09
2022-08-07T23:02:37.949Z,72.37
2022-08-07T23:06:15.205Z,72.58
2022-08-07T23:08:30.209Z,73.20
2022-08-07T23:11:15.933Z,72.97
2022-08-07T23:14:14.673Z,72.82
2022-08-07T23:17:15.625Z,73.05
2022-08-07T23:20:51.406Z,73.21
2022-08-07T23:24:05.639Z,74.54
2022-08-07T23:26:24.980Z,73.94
2022-08-07T23:30:35.938Z,73.24
2022-08-07T23:34:23.539Z,73.27
2022-08-07T23:35:43.486Z,73.57
2022-08-07T23:38:47.929Z,73.31
2022-08-07T23:42:05.134Z,72.75
2022-08-07T23:44:51.251Z,73.06
2022-08-07T23:47:26.764Z,72.87
2022-08-07T23:50:05.454Z,73.24
2022-08-07T23:53:08.405Z,72.86
2022-08-07T23:55:53.602Z,73.95
2022-08-07T23:58:59.865Z,74.11
